Time;durP1;ratioP1;P1;durP2;ratioP2;P2;SDS_P1;SDS_P2;PMS_P1;PMS_P2;Temp;Humidity;BMP_temperature;BMP_pressure;BME280_temperature;BME280_humidity;BME280_pressure;Samples;Min_cycle;Max_cycle;Signal;HPM_P1;HPM_P2
2020/12/24 00:00:33;;;;;;;0.03;0.03;;;;;;;-1.69;100.00;101067.01;1705409;83;21146;-52
2020/12/24 00:03:01;;;;;;;0.03;0.03;;;;;;;-1.69;100.00;101075.56;1704636;83;21137;-52
2020/12/24 00:05:29;;;;;;;6.45;0.85;;;;;;;-1.69;100.00;101076.91;1704571;83;21141;-51
2020/12/24 00:07:57;;;;;;;1.07;0.80;;;;;;;-1.69;100.00;101080.92;1704697;84;21643;-51
2020/12/24 00:10:24;;;;;;;1.85;0.37;;;;;;;-1.68;100.00;101089.27;1704518;84;21560;-51
2020/12/24 00:12:53;;;;;;;0.28;0.28;;;;;;;-1.69;100.00;101087.11;1704577;84;21162;-53
2020/12/24 00:15:21;;;;;;;0.15;0.15;;;;;;;-1.67;100.00;101093.63;1704532;84;21143;-51
2020/12/24 00:17:49;;;;;;;0.00;0.00;;;;;;;-1.67;100.00;101092.30;1704695;84;21174;-52
2020/12/24 00:20:16;;;;;;;0.70;0.70;;;;;;;-1.67;100.00;101097.66;1704527;84;21158;-51
2020/12/24 00:22:44;;;;;;;0.42;0.42;;;;;;;-1.66;100.00;101100.64;1704475;84;21180;-52
2020/12/24 00:25:11;;;;;;;0.33;0.25;;;;;;;-1.68;100.00;101097.31;1704516;84;21516;-52
2020/12/24 00:27:39;;;;;;;0.10;0.10;;;;;;;-1.66;100.00;101106.01;1704694;83;21130;-51
2020/12/24 00:30:06;;;;;;;0.00;0.00;;;;;;;-1.67;100.00;101105.69;1704614;84;21122;-51
2020/12/24 00:32:34;;;;;;;0.00;0.00;;;;;;;-1.67;100.00;101104.36;1704700;84;21158;-52
2020/12/24 00:35:04;;;;;;;0.80;0.45;;;;;;;-1.67;100.00;101109.72;1704471;83;21153;-52
2020/12/24 00:37:32;;;;;;;0.45;0.45;;;;;;;-1.67;100.00;101104.36;1704646;84;21427;-51
2020/12/24 00:39:59;;;;;;;0.65;0.65;;;;;;;-1.68;100.00;101100.84;1704519;84;21157;-51
2020/12/24 00:42:28;;;;;;;0.10;0.10;;;;;;;-1.66;100.00;101104.66;1704568;84;21117;-52
2020/12/24 00:44:56;;;;;;;0.47;0.30;;;;;;;-1.66;100.00;101095.28;1706059;83;21631;-52
2020/12/24 00:47:24;;;;;;;0.10;0.10;;;;;;;-1.66;100.00;101090.75;1760446;81;21170;-52
2020/12/24 00:49:53;;;;;;;0.50;0.47;;;;;;;-1.66;100.00;101084.05;1736892;81;21142;-52
2020/12/24 00:52:21;;;;;;;0.28;0.28;;;;;;;-1.65;100.00;101087.08;1706125;83;21125;-53
2020/12/24 00:54:48;;;;;;;0.15;0.15;;;;;;;-1.66;100.00;101084.56;1760588;81;21110;-52
2020/12/24 00:57:16;;;;;;;0.15;0.15;;;;;;;-1.66;100.00;101085.91;1760826;81;21142;-52
2020/12/24 00:59:43;;;;;;;0.62;0.62;;;;;;;-1.66;100.00;101085.91;1706174;84;21164;-52
2020/12/24 01:02:11;;;;;;;0.10;0.10;;;;;;;-1.66;100.00;101083.23;1760551;81;21528;-52
2020/12/24 01:04:38;;;;;;;0.10;0.10;;;;;;;-1.65;100.00;101080.89;1760388;81;21125;-52
2020/12/24 01:07:06;;;;;;;0.00;0.00;;;;;;;-1.66;100.00;101081.89;1760586;81;21134;-53
2020/12/24 01:09:35;;;;;;;1.50;0.55;;;;;;;-1.67;100.00;101072.20;1760553;81;21169;-52
2020/12/24 01:12:02;;;;;;;0.57;0.47;;;;;;;-1.67;100.00;101061.48;1760426;81;21180;-52
2020/12/24 01:14:30;;;;;;;0.23;0.23;;;;;;;-1.68;100.00;101055.77;1760486;81;21133;-52
2020/12/24 01:16:58;;;;;;;0.15;0.15;;;;;;;-1.67;100.00;101061.48;1760436;81;21141;-52
2020/12/24 01:19:26;;;;;;;2.55;0.33;;;;;;;-1.67;100.00;101052.09;1760432;81;21567;-52
2020/12/24 01:21:53;;;;;;;0.20;0.20;;;;;;;-1.68;100.00;101044.58;1760517;81;21192;-53
2020/12/24 01:24:20;;;;;;;3.35;0.57;;;;;;;-1.69;100.00;101034.85;1760422;81;21690;-53
2020/12/24 01:26:48;;;;;;;0.10;0.10;;;;;;;-1.68;100.00;101037.02;1760483;81;21114;-52
2020/12/24 01:29:16;;;;;;;0.60;0.57;;;;;;;-1.70;100.00;101035.88;1760506;81;21153;-53
2020/12/24 01:31:47;;;;;;;0.50;0.50;;;;;;;-1.69;100.00;101043.41;1706106;84;21454;-52
2020/12/24 01:34:17;;;;;;;0.28;0.28;;;;;;;-1.70;100.00;101048.45;1760498;81;21338;-53
2020/12/24 01:36:44;;;;;;;1.05;1.05;;;;;;;-1.69;100.00;101047.42;1760578;81;21145;-53
2020/12/24 01:39:13;;;;;;;0.10;0.10;;;;;;;-1.68;100.00;101046.39;1760459;81;21161;-52
2020/12/24 01:41:41;;;;;;;0.28;0.28;;;;;;;-1.69;100.00;101044.74;1760524;81;21548;-52
2020/12/24 01:44:10;;;;;;;0.10;0.10;;;;;;;-1.69;100.00;101046.09;1760573;81;21094;-52
2020/12/24 01:46:39;;;;;;;0.00;0.00;;;;;;;-1.70;100.00;101048.45;1760612;81;21141;-53
2020/12/24 01:49:10;;;;;;;0.40;0.40;;;;;;;-1.70;100.00;101049.80;1704712;84;21145;-53
2020/12/24 01:51:39;;;;;;;0.30;0.30;;;;;;;-1.70;100.00;101053.30;1760539;81;21102;-53
2020/12/24 01:54:06;;;;;;;0.05;0.05;;;;;;;-1.69;100.00;101052.78;1737107;81;21166;-53
2020/12/24 01:56:34;;;;;;;0.28;0.28;;;;;;;-1.69;100.00;101057.63;1760481;81;21153;-53
2020/12/24 01:59:01;;;;;;;0.75;0.55;;;;;;;-1.69;100.00;101058.97;1760269;81;21181;-53
2020/12/24 02:01:29;;;;;;;0.42;0.42;;;;;;;-1.66;100.00;101066.63;1760180;79;21577;-52
2020/12/24 02:03:56;;;;;;;1.25;0.57;;;;;;;-1.67;100.00;101070.86;1760184;81;21121;-52
2020/12/24 02:06:24;;;;;;;0.08;0.08;;;;;;;-1.67;100.00;101066.84;1760235;81;21166;-53
2020/12/24 02:08:53;;;;;;;0.10;0.10;;;;;;;-1.67;100.00;101073.53;1759635;81;21244;-52
2020/12/24 02:11:21;;;;;;;0.75;0.75;;;;;;;-1.67;100.00;101075.70;1760166;81;21545;-52
2020/12/24 02:13:49;;;;;;;0.42;0.42;;;;;;;-1.68;100.00;101068.69;1736747;81;21165;-53
2020/12/24 02:16:16;;;;;;;0.20;0.20;;;;;;;-1.66;100.00;101069.31;1760428;81;21161;-52
2020/12/24 02:18:44;;;;;;;0.10;0.10;;;;;;;-1.66;100.00;101067.97;1760466;81;21560;-52
2020/12/24 02:21:11;;;;;;;0.00;0.00;;;;;;;-1.66;100.00;101061.79;1760489;81;21122;-53
2020/12/24 02:23:39;;;;;;;0.42;0.37;;;;;;;-1.65;100.00;101058.11;1760643;81;21162;-53
2020/12/24 02:26:08;;;;;;;0.20;0.20;;;;;;;-1.66;100.00;101051.89;1706140;84;21159;-52
2020/12/24 02:28:36;;;;;;;0.03;0.03;;;;;;;-1.66;100.00;101061.27;1760606;81;21516;-52
2020/12/24 02:31:04;;;;;;;0.35;0.35;;;;;;;-1.63;100.00;101054.72;1760337;81;21008;-53
2020/12/24 02:33:32;;;;;;;0.03;0.03;;;;;;;-1.63;100.00;101054.72;1760305;81;21106;-53
2020/12/24 02:36:00;;;;;;;0.35;0.35;;;;;;;-1.64;100.00;101045.02;1760406;81;21149;-53
2020/12/24 02:38:27;;;;;;;0.10;0.10;;;;;;;-1.63;100.00;101060.07;1760518;81;21177;-52
2020/12/24 02:40:55;;;;;;;0.72;0.72;;;;;;;-1.63;100.00;101057.39;1760514;81;21584;-52
2020/12/24 02:43:23;;;;;;;0.20;0.20;;;;;;;-1.63;100.00;101060.93;1760507;81;21592;-52
2020/12/24 02:45:51;;;;;;;0.05;0.05;;;;;;;-1.62;100.00;101060.41;1760496;81;21138;-52
2020/12/24 02:48:18;;;;;;;0.10;0.10;;;;;;;-1.62;100.00;101051.86;1760504;81;21118;-52
2020/12/24 02:50:46;;;;;;;2.05;0.28;;;;;;;-1.62;100.00;101054.54;1760320;81;21157;-52
2020/12/24 02:53:13;;;;;;;0.08;0.08;;;;;;;-1.62;100.00;101057.22;1760332;81;21105;-52
2020/12/24 02:55:41;;;;;;;0.20;0.20;;;;;;;-1.62;100.00;101063.09;1760426;81;21177;-52
2020/12/24 02:58:08;;;;;;;0.00;0.00;;;;;;;-1.63;100.00;101052.03;1760329;81;21134;-53
2020/12/24 03:00:36;;;;;;;0.10;0.10;;;;;;;-1.64;100.00;101053.89;1705928;84;21133;-52
2020/12/24 03:03:04;;;;;;;0.10;0.10;;;;;;;-1.63;100.00;101049.35;1759649;81;21174;-52
2020/12/24 03:05:32;;;;;;;0.40;0.40;;;;;;;-1.65;100.00;101044.71;1759677;80;21194;-52
2020/12/24 03:08:01;;;;;;;0.00;0.00;;;;;;;-1.66;100.00;101053.23;1690626;84;21709;-53
2020/12/24 03:10:30;;;;;;;0.30;0.30;;;;;;;-1.67;100.00;101054.78;1695428;84;21174;-52
2020/12/24 03:12:58;;;;;;;0.72;0.30;;;;;;;-1.66;100.00;101055.09;1645791;84;21130;-53
2020/12/24 03:15:26;;;;;;;0.10;0.10;;;;;;;-1.67;100.00;101047.56;1695486;84;21196;-53
2020/12/24 03:17:53;;;;;;;0.08;0.08;;;;;;;-1.67;100.00;101050.76;1695446;84;21175;-52
2020/12/24 03:20:21;;;;;;;0.10;0.10;;;;;;;-1.68;100.00;101043.72;1695319;84;21110;-52
2020/12/24 03:22:48;;;;;;;0.00;0.00;;;;;;;-1.70;100.00;101035.05;1695392;84;21161;-52
2020/12/24 03:25:16;;;;;;;0.23;0.23;;;;;;;-1.74;100.00;101030.04;1695431;84;21150;-53
2020/12/24 03:27:43;;;;;;;0.42;0.42;;;;;;;-1.74;100.00;101031.89;1695296;84;21218;-52
2020/12/24 03:30:11;;;;;;;0.15;0.15;;;;;;;-1.74;100.00;101031.38;1695210;83;21153;-53
2020/12/24 03:32:38;;;;;;;0.10;0.10;;;;;;;-1.75;100.00;101037.77;1703289;84;21158;-52
2020/12/24 03:35:06;;;;;;;0.10;0.10;;;;;;;-1.75;100.00;101032.92;1703232;84;21126;-52
2020/12/24 03:37:34;;;;;;;0.10;0.10;;;;;;;-1.76;100.00;101032.07;1703487;83;21173;-52
2020/12/24 03:40:03;;;;;;;0.95;0.53;;;;;;;-1.76;100.00;101043.30;1703368;84;21209;-53
2020/12/24 03:42:31;;;;;;;0.20;0.20;;;;;;;-1.77;100.00;101045.16;1703384;83;21197;-53
2020/12/24 03:44:59;;;;;;;0.10;0.10;;;;;;;-1.78;100.00;101044.84;1703333;84;21126;-52
2020/12/24 03:47:27;;;;;;;0.00;0.00;;;;;;;-1.79;100.00;101036.46;1703416;84;21109;-52
2020/12/24 03:49:54;;;;;;;0.20;0.20;;;;;;;-1.80;100.00;101030.80;1703428;84;21177;-52
2020/12/24 03:52:22;;;;;;;0.10;0.10;;;;;;;-1.81;100.00;101033.13;1703480;84;21589;-53
2020/12/24 03:54:49;;;;;;;0.57;0.57;;;;;;;-1.82;100.00;101030.14;1703483;84;21133;-53
2020/12/24 03:57:17;;;;;;;0.10;0.10;;;;;;;-1.83;100.00;101035.19;1703395;84;21184;-53
2020/12/24 03:59:45;;;;;;;0.10;0.10;;;;;;;-1.85;100.00;101039.89;1703534;84;21182;-53
2020/12/24 04:02:13;;;;;;;0.17;0.17;;;;;;;-1.84;100.00;101035.36;1703318;83;21572;-52
2020/12/24 04:04:41;;;;;;;0.30;0.30;;;;;;;-1.85;100.00;101033.70;1703234;84;21581;-52
2020/12/24 04:07:10;;;;;;;0.00;0.00;;;;;;;-1.86;100.00;101032.85;1703246;84;21153;-52
2020/12/24 04:09:38;;;;;;;0.05;0.05;;;;;;;-1.86;100.00;101030.69;1713699;82;21146;-52
2020/12/24 04:12:06;;;;;;;1.27;0.47;;;;;;;-1.85;100.00;101037.21;1732760;82;21168;-52
2020/12/24 04:14:34;;;;;;;0.00;0.00;;;;;;;-1.86;100.00;101031.52;1732665;82;21433;-53
2020/12/24 04:17:01;;;;;;;0.00;0.00;;;;;;;-1.84;100.00;101031.34;1732526;82;21181;-52
2020/12/24 04:19:30;;;;;;;0.10;0.10;;;;;;;-1.85;100.00;101027.01;1703330;84;21165;-53
2020/12/24 04:21:57;;;;;;;0.00;0.00;;;;;;;-1.86;100.00;101026.16;1703422;84;21423;-52
2020/12/24 04:24:25;;;;;;;0.05;0.05;;;;;;;-1.85;100.00;101027.84;1703393;84;21161;-52
2020/12/24 04:26:56;;;;;;;0.00;0.00;;;;;;;-1.85;100.00;101030.52;1703398;84;21181;-52
2020/12/24 04:29:23;;;;;;;0.15;0.15;;;;;;;-1.85;100.00;101025.16;1703364;84;21147;-52
2020/12/24 04:31:50;;;;;;;0.10;0.10;;;;;;;-1.83;100.00;101022.27;1703338;84;21639;-53
2020/12/24 04:34:18;;;;;;;0.03;0.03;;;;;;;-1.84;100.00;101024.64;1703207;84;21114;-52
2020/12/24 04:36:50;;;;;;;0.05;0.05;;;;;;;-1.85;100.00;101025.67;1703377;84;21133;-52
2020/12/24 04:39:19;;;;;;;0.10;0.10;;;;;;;-1.85;100.00;101025.16;1703465;84;21150;-52
2020/12/24 04:41:47;;;;;;;0.20;0.20;;;;;;;-1.85;100.00;101025.16;1703303;84;21150;-52
2020/12/24 04:44:14;;;;;;;0.20;0.20;;;;;;;-1.85;100.00;101017.13;1703411;84;21505;-52
2020/12/24 04:46:42;;;;;;;0.23;0.23;;;;;;;-1.85;100.00;101020.31;1703413;84;21125;-52
2020/12/24 04:49:10;;;;;;;0.00;0.00;;;;;;;-1.86;100.00;101018.12;1703378;84;21106;-52
2020/12/24 04:51:40;;;;;;;0.25;0.13;;;;;;;-1.87;100.00;101019.14;1703411;84;21448;-53
2020/12/24 04:54:09;;;;;;;0.00;0.00;;;;;;;-1.88;100.00;101024.19;1698982;82;21157;-52
2020/12/24 04:56:37;;;;;;;0.30;0.28;;;;;;;-1.90;100.00;101024.02;1719828;82;21174;-53
2020/12/24 04:59:06;;;;;;;0.10;0.10;;;;;;;-1.90;100.00;101018.66;1697071;82;21123;-52
2020/12/24 05:01:35;;;;;;;0.53;0.53;;;;;;;-1.91;100.00;101012.48;1701990;81;21130;-53
2020/12/24 05:04:03;;;;;;;0.10;0.10;;;;;;;-1.91;100.00;101017.02;1720685;83;21138;-52
2020/12/24 05:06:31;;;;;;;0.55;0.55;;;;;;;-1.94;100.00;101020.89;1712099;83;21190;-52
2020/12/24 05:08:59;;;;;;;0.10;0.10;;;;;;;-1.95;100.00;101018.72;1727142;82;21162;-53
2020/12/24 05:11:32;;;;;;;0.10;0.10;;;;;;;-1.95;100.00;101015.22;1721417;83;21804;-52
2020/12/24 05:14:17;;;;;;;0.33;0.23;;;;;;;-1.96;100.00;101009.01;1706402;82;21094;-52
2020/12/24 05:17:06;;;;;;;0.10;0.10;;;;;;;-1.96;100.00;101013.02;1698885;83;21149;-53
2020/12/24 05:19:36;;;;;;;0.28;0.20;;;;;;;-1.96;100.00;101004.98;1710992;83;21437;-52
2020/12/24 05:22:21;;;;;;;0.10;0.10;;;;;;;-1.96;100.00;101000.15;1727279;83;21122;-52
2020/12/24 05:24:49;;;;;;;7.37;0.50;;;;;;;-1.96;100.00;101006.84;1714102;83;21113;-53
2020/12/24 05:27:20;;;;;;;0.10;0.10;;;;;;;-1.98;100.00;101007.05;1719630;83;21151;-52
2020/12/24 05:29:51;;;;;;;0.13;0.13;;;;;;;-1.97;100.00;100999.84;1698026;84;21779;-54
2020/12/24 05:32:29;;;;;;;0.03;0.03;;;;;;;-1.96;100.00;100997.47;1700010;83;21640;-52
2020/12/24 05:35:11;;;;;;;0.30;0.30;;;;;;;-1.96;100.00;101001.48;1709004;83;21162;-52
2020/12/24 05:37:39;;;;;;;0.82;0.82;;;;;;;-1.97;100.00;100997.16;1727194;82;21098;-52
2020/12/24 05:40:21;;;;;;;0.10;0.10;;;;;;;-1.98;100.00;101003.51;1712077;82;21133;-52
2020/12/24 05:42:52;;;;;;;0.10;0.10;;;;;;;-1.98;100.00;100995.47;1716670;83;21169;-52
2020/12/24 05:45:22;;;;;;;0.30;0.30;;;;;;;-1.98;100.00;100999.49;1709033;82;21144;-52
2020/12/24 05:48:14;;;;;;;0.98;0.98;;;;;;;-1.97;100.00;100998.50;1701110;83;21147;-53
2020/12/24 05:50:43;;;;;;;0.47;0.47;;;;;;;-1.97;100.00;100995.81;1715120;83;21099;-52
2020/12/24 05:53:12;;;;;;;4.80;0.82;;;;;;;-1.97;100.00;100997.16;1722912;83;21162;-52
2020/12/24 05:55:41;;;;;;;0.10;0.10;;;;;;;-1.98;100.00;101005.70;1725235;83;21133;-52
2020/12/24 05:58:09;;;;;;;0.10;0.10;;;;;;;-1.98;100.00;101002.17;1721381;82;21154;-52
2020/12/24 06:00:39;;;;;;;0.10;0.10;;;;;;;-1.98;100.00;101007.05;1699400;83;21134;-52
2020/12/24 06:03:17;;;;;;;1.47;0.53;;;;;;;-1.97;100.00;101009.21;1729223;81;21157;-52
2020/12/24 06:05:56;;;;;;;0.28;0.28;;;;;;;-1.96;100.00;101009.52;1732128;82;21138;-52
2020/12/24 06:08:28;;;;;;;0.10;0.10;;;;;;;-1.95;100.00;101009.86;1732624;82;21145;-52
2020/12/24 06:11:07;;;;;;;0.10;0.10;;;;;;;-1.95;100.00;101012.03;1732774;82;21133;-52
2020/12/24 06:13:44;;;;;;;0.88;0.50;;;;;;;-1.94;100.00;101004.82;1732611;82;21130;-52
2020/12/24 06:16:13;;;;;;;0.00;0.00;;;;;;;-1.93;100.00;101002.45;1732544;82;21158;-52
2020/12/24 06:18:44;;;;;;;0.42;0.42;;;;;;;-1.93;100.00;100998.44;1732478;82;21580;-52
2020/12/24 06:21:18;;;;;;;1.35;0.85;;;;;;;-1.92;100.00;101001.45;1732638;82;21154;-52
2020/12/24 06:23:53;;;;;;;0.33;0.33;;;;;;;-1.92;100.00;101000.11;1732564;82;21193;-52
2020/12/24 06:26:30;;;;;;;0.10;0.10;;;;;;;-1.91;100.00;101003.10;1732414;82;21390;-52
2020/12/24 06:29:00;;;;;;;0.00;0.00;;;;;;;-1.90;100.00;101002.59;1732274;82;21141;-52
2020/12/24 06:31:29;;;;;;;0.10;0.10;;;;;;;-1.89;100.00;101006.44;1732683;82;21149;-52
2020/12/24 06:33:56;;;;;;;0.42;0.42;;;;;;;-1.88;100.00;101010.80;1732520;82;21153;-52
2020/12/24 06:36:35;;;;;;;0.00;0.00;;;;;;;-1.86;100.00;101014.09;1732647;82;21161;-52
2020/12/24 06:39:04;;;;;;;0.10;0.10;;;;;;;-1.85;100.00;101013.10;1732831;82;21173;-52
2020/12/24 06:41:38;;;;;;;2.80;0.72;;;;;;;-1.82;100.00;101023.44;1732971;82;21122;-52
2020/12/24 06:44:06;;;;;;;0.42;0.42;;;;;;;-1.80;100.00;101017.40;1732901;82;21130;-53
2020/12/24 06:46:56;;;;;;;0.40;0.40;;;;;;;-1.79;100.00;101009.67;1732722;82;21164;-52
2020/12/24 06:49:30;;;;;;;0.55;0.55;;;;;;;-1.79;100.00;101008.33;1732406;82;21137;-52
2020/12/24 06:51:58;;;;;;;0.10;0.10;;;;;;;-1.76;100.00;101005.27;1732770;82;21133;-52
2020/12/24 06:54:26;;;;;;;0.47;0.45;;;;;;;-1.74;100.00;101005.92;1732756;82;21153;-52
2020/12/24 06:57:23;;;;;;;0.40;0.40;;;;;;;-1.70;100.00;101004.23;1732824;82;21129;-52
2020/12/24 07:00:20;;;;;;;0.40;0.40;;;;;;;-1.68;100.00;101016.44;1732639;82;21158;-52
2020/12/24 07:02:49;;;;;;;0.20;0.20;;;;;;;-1.63;100.00;101021.21;1732539;81;21125;-52
2020/12/24 07:05:45;;;;;;;0.35;0.35;;;;;;;-1.62;100.00;101019.70;1732744;82;21603;-52
2020/12/24 07:08:36;;;;;;;0.10;0.10;;;;;;;-1.58;100.00;101021.52;1732740;82;21142;-52
2020/12/24 07:11:04;;;;;;;2.60;0.60;;;;;;;-1.56;100.00;101020.80;1732784;82;21158;-52
2020/12/24 07:13:38;;;;;;;0.70;0.70;;;;;;;-1.52;100.00;101009.52;1732743;82;21636;-52
2020/12/24 07:16:09;;;;;;;2.45;0.35;;;;;;;-1.48;100.00;101008.66;1732843;82;21153;-52
2020/12/24 07:18:38;;;;;;;0.30;0.30;;;;;;;-1.43;100.00;101009.45;1732662;82;21138;-52
2020/12/24 07:21:09;;;;;;;2.40;0.40;;;;;;;-1.38;100.00;101009.71;1732746;82;21117;-52
2020/12/24 07:23:38;;;;;;;0.03;0.03;;;;;;;-1.34;100.00;101008.30;1732760;82;21002;-52
2020/12/24 07:26:08;;;;;;;0.15;0.15;;;;;;;-1.32;100.00;100996.37;1732812;82;21197;-52
2020/12/24 07:28:37;;;;;;;0.45;0.45;;;;;;;-1.28;100.00;100998.70;1732713;82;21138;-52
2020/12/24 07:31:08;;;;;;;0.30;0.30;;;;;;;-1.26;100.00;101001.51;1732864;82;21086;-52
2020/12/24 07:33:44;;;;;;;0.25;0.25;;;;;;;-1.23;100.00;100996.28;1732797;82;21130;-52
2020/12/24 07:36:13;;;;;;;1.15;0.40;;;;;;;-1.21;100.00;100991.53;1732769;82;21142;-52
2020/12/24 07:38:41;;;;;;;0.00;0.00;;;;;;;-1.19;100.00;100993.52;1732691;82;21215;-53
2020/12/24 07:41:14;;;;;;;0.55;0.55;;;;;;;-1.18;100.00;100997.88;1732596;82;21165;-52
2020/12/24 07:43:42;;;;;;;0.30;0.30;;;;;;;-1.16;100.00;101001.21;1732717;82;21509;-52
2020/12/24 07:46:10;;;;;;;0.72;0.65;;;;;;;-1.14;100.00;100995.12;1732659;82;21404;-52
2020/12/24 07:48:38;;;;;;;0.37;0.37;;;;;;;-1.12;100.00;100995.25;1732618;82;21150;-52
2020/12/24 07:51:07;;;;;;;0.28;0.28;;;;;;;-1.10;100.00;100985.17;1732732;82;21050;-52
2020/12/24 07:53:35;;;;;;;0.35;0.13;;;;;;;-1.07;100.00;100978.59;1732555;82;21205;-52
2020/12/24 07:56:06;;;;;;;0.30;0.30;;;;;;;-1.04;100.00;100977.39;1732605;82;21170;-51
2020/12/24 07:58:34;;;;;;;0.10;0.10;;;;;;;-1.00;100.00;100985.38;1732551;82;21290;-52
2020/12/24 08:01:05;;;;;;;0.10;0.10;;;;;;;-0.96;100.00;100979.97;1732662;82;21122;-52
2020/12/24 08:03:34;;;;;;;0.62;0.62;;;;;;;-0.94;100.00;100983.27;1742385;81;21126;-52
2020/12/24 08:06:05;;;;;;;0.00;0.00;;;;;;;-0.92;100.00;100982.57;1756532;81;21699;-52
2020/12/24 08:08:35;;;;;;;0.37;0.37;;;;;;;-0.91;100.00;100981.05;1756549;81;21103;-52
2020/12/24 08:11:09;;;;;;;0.20;0.20;;;;;;;-0.88;100.00;100986.55;1756558;81;21111;-52
2020/12/24 08:13:37;;;;;;;0.10;0.10;;;;;;;-0.84;100.00;100992.34;1756738;81;21139;-52
2020/12/24 08:16:06;;;;;;;0.60;0.60;;;;;;;-0.84;100.00;101000.39;1756305;81;21182;-52
2020/12/24 08:18:36;;;;;;;0.10;0.10;;;;;;;-0.83;100.00;100987.31;1753524;81;21176;-52
2020/12/24 08:21:12;;;;;;;0.10;0.10;;;;;;;-0.81;100.00;100987.96;1756434;81;21119;-52
2020/12/24 08:23:54;;;;;;;0.37;0.37;;;;;;;-0.79;100.00;100985.89;1755891;81;21122;-53
2020/12/24 08:26:23;;;;;;;0.10;0.10;;;;;;;-0.79;100.00;100988.58;1756636;81;21576;-53
2020/12/24 08:28:56;;;;;;;0.30;0.30;;;;;;;-0.82;100.00;100976.37;1756480;81;21311;-53
2020/12/24 08:31:25;;;;;;;0.13;0.13;;;;;;;-0.81;100.00;100978.05;1756425;81;21593;-53
2020/12/24 08:33:53;;;;;;;0.15;0.15;;;;;;;-0.78;100.00;100970.13;1756485;81;21222;-53
2020/12/24 08:36:23;;;;;;;0.10;0.10;;;;;;;-0.75;100.00;100973.77;1756417;81;21570;-53
2020/12/24 08:38:51;;;;;;;0.13;0.13;;;;;;;-0.75;100.00;100965.20;1756365;80;21703;-53
2020/12/24 08:41:23;;;;;;;0.33;0.33;;;;;;;-0.73;100.00;100969.04;1756536;81;21142;-53
2020/12/24 08:43:55;;;;;;;0.65;0.65;;;;;;;-0.72;100.00;100969.34;1756429;81;21265;-53
2020/12/24 08:46:22;;;;;;;0.40;0.40;;;;;;;-0.72;99.95;100964.83;1756614;81;21118;-53
2020/12/24 08:48:50;;;;;;;0.03;0.03;;;;;;;-0.74;99.90;100967.36;1756438;81;21270;-52
2020/12/24 08:51:19;;;;;;;1.25;1.15;;;;;;;-0.73;100.00;100960.98;1753536;81;21637;-52
2020/12/24 08:53:49;;;;;;;0.20;0.20;;;;;;;-0.70;100.00;100965.45;1755748;81;21138;-52
2020/12/24 08:56:17;;;;;;;0.10;0.10;;;;;;;-0.68;99.97;100960.72;1756428;80;21142;-53
2020/12/24 08:58:52;;;;;;;0.17;0.17;;;;;;;-0.67;99.93;100951.66;1756529;81;21154;-53
2020/12/24 09:01:21;;;;;;;0.82;0.62;;;;;;;-0.64;99.92;100945.08;1756459;81;21668;-53
2020/12/24 09:03:48;;;;;;;0.30;0.23;;;;;;;-0.63;99.84;100948.06;1746973;81;21118;-54
2020/12/24 09:06:18;;;;;;;0.20;0.20;;;;;;;-0.62;99.87;100953.73;1732396;82;21141;-54
2020/12/24 09:08:49;;;;;;;0.10;0.10;;;;;;;-0.60;99.88;100955.72;1732694;82;21177;-53
2020/12/24 09:11:31;;;;;;;0.10;0.10;;;;;;;-0.60;99.88;100947.67;1732637;82;21150;-53
2020/12/24 09:14:04;;;;;;;2.83;0.30;;;;;;;-0.59;99.80;100948.50;1732564;82;21556;-54
2020/12/24 09:16:32;;;;;;;1.22;0.47;;;;;;;-0.58;99.93;100942.95;1732821;82;21445;-54
2020/12/24 09:19:08;;;;;;;0.10;0.10;;;;;;;-0.56;99.84;100947.61;1732633;82;21125;-53
2020/12/24 09:21:36;;;;;;;0.23;0.23;;;;;;;-0.55;99.86;100943.89;1732524;82;21558;-54
2020/12/24 09:24:10;;;;;;;1.72;1.62;;;;;;;-0.57;99.69;100937.91;1731451;82;21109;-53
2020/12/24 09:26:51;;;;;;;0.10;0.10;;;;;;;-0.58;99.74;100943.47;1732382;82;21126;-52
2020/12/24 09:29:20;;;;;;;1.65;0.85;;;;;;;-0.58;99.86;100933.55;1732253;82;21184;-53
2020/12/24 09:31:59;;;;;;;0.85;0.80;;;;;;;-0.54;99.96;100932.66;1732635;82;21122;-53
2020/12/24 09:34:30;;;;;;;0.15;0.15;;;;;;;-0.52;99.91;100924.73;1732352;82;21107;-53
2020/12/24 09:36:58;;;;;;;0.47;0.37;;;;;;;-0.50;99.81;100919.97;1732600;82;21592;-53
2020/12/24 09:39:25;;;;;;;0.72;0.72;;;;;;;-0.51;99.77;100923.70;1732672;82;21130;-53
2020/12/24 09:41:53;;;;;;;0.10;0.10;;;;;;;-0.49;99.88;100909.57;1732777;82;21553;-53
2020/12/24 09:44:21;;;;;;;0.75;0.75;;;;;;;-0.47;99.72;100916.92;1732648;82;21146;-53
2020/12/24 09:46:48;;;;;;;0.10;0.10;;;;;;;-0.48;99.60;100914.42;1732710;82;21137;-53
2020/12/24 09:49:17;;;;;;;1.55;0.95;;;;;;;-0.48;99.61;100910.39;1732702;82;21161;-53
2020/12/24 09:51:47;;;;;;;0.15;0.15;;;;;;;-0.50;99.62;100911.92;1732705;82;21071;-52
2020/12/24 09:54:16;;;;;;;0.50;0.33;;;;;;;-0.49;99.70;100910.91;1727781;82;21118;-52
2020/12/24 09:56:43;;;;;;;0.10;0.10;;;;;;;-0.47;99.63;100908.86;1732604;82;21591;-53
2020/12/24 09:59:11;;;;;;;0.17;0.17;;;;;;;-0.48;99.54;100901.81;1732493;82;21146;-52
2020/12/24 10:01:40;;;;;;;0.35;0.35;;;;;;;-0.50;99.44;100895.81;1732564;82;21182;-52
2020/12/24 10:04:07;;;;;;;0.70;0.70;;;;;;;-0.52;99.31;100895.20;1732478;81;21150;-52
2020/12/24 10:06:35;;;;;;;1.02;0.68;;;;;;;-0.52;99.38;100893.00;1732653;82;21193;-52
2020/12/24 10:09:03;;;;;;;0.53;0.53;;;;;;;-0.50;99.54;100883.73;1732497;82;21131;-50
2020/12/24 10:11:30;;;;;;;0.13;0.13;;;;;;;-0.47;99.61;100882.02;1732386;82;21126;-50
2020/12/24 10:13:57;;;;;;;0.25;0.17;;;;;;;-0.44;99.60;100884.30;1732591;82;21164;-50
2020/12/24 10:16:27;;;;;;;0.00;0.00;;;;;;;-0.40;99.49;100882.56;1732455;82;21184;-50
2020/12/24 10:18:54;;;;;;;0.20;0.20;;;;;;;-0.38;99.33;100870.59;1732822;82;21676;-50
2020/12/24 10:21:22;;;;;;;0.33;0.30;;;;;;;-0.38;99.34;100859.03;1732763;82;21527;-51
2020/12/24 10:23:49;;;;;;;0.20;0.20;;;;;;;-0.36;99.19;100852.95;1732575;82;21117;-51
2020/12/24 10:26:17;;;;;;;0.23;0.23;;;;;;;-0.38;99.12;100846.95;1732650;82;21117;-50
2020/12/24 10:28:44;;;;;;;0.10;0.10;;;;;;;-0.37;99.17;100842.73;1732739;82;21142;-51
2020/12/24 10:31:12;;;;;;;1.17;0.40;;;;;;;-0.34;99.19;100840.16;1732940;82;21517;-51
2020/12/24 10:33:39;;;;;;;0.13;0.13;;;;;;;-0.33;99.23;100834.58;1732836;82;21138;-50
2020/12/24 10:36:07;;;;;;;0.47;0.25;;;;;;;-0.31;99.23;100833.87;1732804;82;21130;-51
2020/12/24 10:38:36;;;;;;;0.90;0.57;;;;;;;-0.29;99.13;100831.82;1732692;82;21159;-50
2020/12/24 10:41:03;;;;;;;0.35;0.35;;;;;;;-0.28;99.12;100825.93;1732555;82;21173;-50
2020/12/24 10:43:33;;;;;;;0.20;0.20;;;;;;;-0.28;99.00;100824.59;1732675;82;21110;-51
2020/12/24 10:46:01;;;;;;;0.30;0.30;;;;;;;-0.28;98.96;100820.56;1732765;82;21154;-52
2020/12/24 10:48:28;;;;;;;0.30;0.30;;;;;;;-0.28;99.01;100821.38;1732784;82;21125;-51
2020/12/24 10:50:56;;;;;;;0.55;0.55;;;;;;;-0.25;99.09;100808.06;1732680;82;21179;-51
2020/12/24 10:53:23;;;;;;;0.10;0.10;;;;;;;-0.23;99.05;100801.47;1732854;82;21437;-51
2020/12/24 10:55:51;;;;;;;0.57;0.57;;;;;;;-0.22;98.90;100806.34;1732775;82;21114;-51
2020/12/24 10:58:18;;;;;;;1.85;1.35;;;;;;;-0.21;98.90;100799.94;1732795;82;21109;-51
2020/12/24 11:00:46;;;;;;;1.22;0.50;;;;;;;-0.21;98.90;100795.91;1732578;82;21145;-51
2020/12/24 11:03:13;;;;;;;0.42;0.42;;;;;;;-0.18;99.02;100791.47;1732734;82;21640;-51
2020/12/24 11:05:42;;;;;;;0.30;0.30;;;;;;;-0.15;99.01;100785.69;1732658;81;21114;-50
2020/12/24 11:08:09;;;;;;;0.10;0.10;;;;;;;-0.12;98.94;100790.69;1732775;82;21121;-50
2020/12/24 11:10:37;;;;;;;0.00;0.00;;;;;;;-0.11;98.81;100797.70;1732655;82;21632;-50
2020/12/24 11:13:05;;;;;;;0.23;0.23;;;;;;;-0.11;98.83;100794.19;1732581;82;21449;-51
2020/12/24 11:15:32;;;;;;;0.80;0.57;;;;;;;-0.10;98.79;100796.69;1732561;82;21130;-51
2020/12/24 11:18:00;;;;;;;0.30;0.30;;;;;;;-0.09;98.70;100801.55;1732590;82;21854;-51
2020/12/24 11:20:28;;;;;;;0.00;0.00;;;;;;;-0.10;98.71;100791.31;1732550;82;21146;-51
2020/12/24 11:22:55;;;;;;;0.10;0.10;;;;;;;-0.10;98.78;100795.34;1732738;82;21154;-51
2020/12/24 11:25:24;;;;;;;0.33;0.33;;;;;;;-0.09;98.82;100792.96;1731686;82;21632;-51
2020/12/24 11:27:52;;;;;;;1.40;0.78;;;;;;;-0.05;98.89;100802.78;1732633;82;21130;-51
2020/12/24 11:30:20;;;;;;;0.25;0.20;;;;;;;-0.04;98.75;100803.94;1732592;82;21207;-50